Airfield :







YOU CAN JOIN US ON...

 
LOGIN :

Register | Disclaimer

   EN    FR    IT 

 









Legend :    VFR   Marginal VFR   IFR   Intensive IFR   Very Intensive IFR
Visi :
Ceiling :
>= 8 km
>= 3000ft
5 to 8 km
1000 to 3000 ft
1500m to 5 km
500 to 1000 ft
800 to 1500m
200 to 500 ft
< 800m
< 200 ft
Symbols :   Thunderstorms  Fog  Heavy snow  Heavy precipitations  Wind > 20 kt







- Airport Elevation : 377 ft
- IATA code : YPS


CYPD - Port Hawkesbury

CURRENT METAR :
  • 230937Z AUTO 06011KT 6SM -RA BR FEW006 OVC011 04/03 A3019 RMK SLP229

EXPIRED METARs :
  • 230932Z AUTO 06011KT 4SM -RA BR SCT006 OVC011 04/03 A3019 RMK SLP228
  • 230900Z AUTO 07010KT 5SM BR BKN006 OVC013 04/04 A3020 RMK SLP230
  • 230857Z AUTO 07012KT 4SM BR BKN006 OVC013 04/04 A3020 RMK SLP230
  • 230841Z AUTO 06010KT 4SM BR OVC013 04/04 A3019 RMK SLP229
  • 230826Z AUTO 06008KT 5SM -RA BR OVC013 04/04 A3019 RMK SLP228
  • 230800Z AUTO 06008KT 9SM SCT007 OVC013 05/04 A3020 RMK SLP230
  • 230730Z AUTO 06011KT 6SM BR BKN005 BKN015 OVC023 05/04 A3020 RMK SLP231
  • 230711Z AUTO 06009G16KT 7SM -RA FEW003 SCT015 BKN023 OVC028 05/05 A3020 RMK SLP232
  • 230700Z AUTO 06012G18KT 9SM -RA FEW003 SCT015 OVC025 05/05 A3019 RMK SLP229
  • 230655Z AUTO 06011KT 6SM -RA BR SCT003 SCT015 OVC025 05/05 A3020 RMK SLP231

TAF N/A
CZQM FIR / North America



MET'MAP, your aeronautical weather chart ! - Copyright ORBIFLY December 2007 - Disclaimer

ORBIFLY MET'MAP TEAM :

Programming & Development : Alexandra Zaïnal
Concept & Development : Baudouin d'Aumeries
Co-Development & Prog : Marc-Olivier Méhu
Technical & hardware support : Manuel Goepfert

Contact : metmap@orbifly.com




SOURCES & CREDITS :

   NOAA